Time;durP1;ratioP1;P1;durP2;ratioP2;P2;SDS_P1;SDS_P2;PMS_P1;PMS_P2;Temp;Humidity;BMP_temperature;BMP_pressure;BME280_temperature;BME280_humidity;BME280_pressure;Samples;Min_cycle;Max_cycle;Signal;HPM_P1;HPM_P2
2022/04/09 00:00:24;;;;;;;14.20;8.50;;;;;;;5.20;78.43;96560.84;107903;1279;22573;-73
2022/04/09 00:02:51;;;;;;;12.40;8.40;;;;;;;5.19;78.35;96560.56;107907;1279;22636;-73
2022/04/09 00:05:18;;;;;;;12.00;8.10;;;;;;;5.19;78.07;96561.00;107915;1279;22623;-73
2022/04/09 00:07:45;;;;;;;13.50;9.00;;;;;;;5.25;77.84;96562.13;107933;1279;24318;-73
2022/04/09 00:10:13;;;;;;;14.50;10.40;;;;;;;5.28;77.93;96566.73;107984;1279;22623;-73
2022/04/09 00:12:44;;;;;;;18.20;11.40;;;;;;;5.30;78.76;96567.48;107998;1279;24077;-73
2022/04/09 00:15:16;;;;;;;18.20;12.00;;;;;;;5.27;78.87;96565.27;107917;1279;22620;-73
2022/04/09 00:17:46;;;;;;;20.00;12.80;;;;;;;5.27;78.25;96565.30;107908;1279;22557;-73
2022/04/09 00:20:15;;;;;;;21.40;13.00;;;;;;;5.26;78.46;96561.73;107894;1279;22620;-73
2022/04/09 00:22:44;;;;;;;20.00;11.70;;;;;;;5.26;78.10;96561.85;107914;1279;22675;-73
2022/04/09 00:25:21;;;;;;;18.00;11.40;;;;;;;5.30;77.93;96558.83;108061;1279;22537;-73
2022/04/09 00:27:48;;;;;;;14.30;9.60;;;;;;;5.32;78.35;96540.05;107876;1279;22569;-73
2022/04/09 00:30:15;;;;;;;19.50;10.80;;;;;;;5.35;78.81;96533.98;107971;1279;23509;-73
2022/04/09 00:32:42;;;;;;;15.00;8.90;;;;;;;5.34;78.82;96536.26;108034;1278;22614;-73
2022/04/09 00:35:09;;;;;;;16.60;9.60;;;;;;;5.31;78.64;96538.20;108015;1277;22709;-73
2022/04/09 00:37:45;;;;;;;15.00;8.50;;;;;;;5.29;78.58;96532.34;108037;1277;22634;-73
2022/04/09 00:40:15;;;;;;;12.20;7.90;;;;;;;5.27;78.25;96523.31;108068;1278;25412;-73
2022/04/09 00:42:42;;;;;;;13.00;7.50;;;;;;;5.29;78.49;96505.86;108051;1278;22572;-73
2022/04/09 00:45:11;;;;;;;12.20;7.00;;;;;;;5.31;78.51;96494.02;108030;1278;22724;-73
2022/04/09 00:47:40;;;;;;;14.80;7.90;;;;;;;5.30;78.82;96485.31;108058;1277;22802;-73
2022/04/09 00:50:09;;;;;;;19.60;10.40;;;;;;;5.27;79.17;96478.95;108083;1278;22534;-73
2022/04/09 00:52:52;;;;;;;23.60;12.30;;;;;;;5.24;78.66;96493.01;108094;1278;22562;-73
2022/04/09 00:58:15;;;;;;;22.00;11.20;;;;;;;5.21;78.09;96517.02;108020;1278;22673;-73
2022/04/09 01:00:43;;;;;;;18.30;11.10;;;;;;;5.23;78.44;96514.95;108021;1278;22558;-73
2022/04/09 01:03:16;;;;;;;17.30;10.60;;;;;;;5.25;78.77;96525.34;108131;1277;22534;-73
2022/04/09 01:05:45;;;;;;;18.00;10.80;;;;;;;5.26;79.19;96523.09;108030;1277;22552;-73
2022/04/09 01:08:12;;;;;;;17.20;11.20;;;;;;;5.24;79.14;96509.90;108283;1278;22775;-73
2022/04/09 01:10:40;;;;;;;17.90;11.30;;;;;;;5.25;78.92;96503.25;108028;1277;22550;-73
2022/04/09 01:13:07;;;;;;;15.90;11.40;;;;;;;5.26;79.02;96506.48;108091;1278;22546;-72
2022/04/09 01:15:35;;;;;;;20.20;12.80;;;;;;;5.28;78.79;96499.41;108026;1277;22593;-73
2022/04/09 01:18:02;;;;;;;20.60;12.00;;;;;;;5.30;78.94;96489.11;108025;1277;23035;-73
2022/04/09 01:20:29;;;;;;;23.00;13.50;;;;;;;5.28;79.56;96477.13;108034;1278;22553;-73
2022/04/09 01:22:56;;;;;;;24.10;13.90;;;;;;;5.24;79.53;96465.95;108006;1277;22714;-73
2022/04/09 01:25:23;;;;;;;24.80;15.10;;;;;;;5.21;79.71;96455.63;107996;1278;22585;-73
2022/04/09 01:27:51;;;;;;;29.90;16.60;;;;;;;5.19;79.28;96450.65;108035;1278;22629;-73
2022/04/09 01:30:19;;;;;;;29.70;18.00;;;;;;;5.20;79.11;96450.51;108038;1278;24457;-73
2022/04/09 01:32:46;;;;;;;21.40;14.00;;;;;;;5.25;78.77;96457.19;108029;1279;22649;-73
2022/04/09 01:35:14;;;;;;;18.10;12.80;;;;;;;5.26;79.15;96458.35;108029;1278;22703;-73
2022/04/09 01:37:41;;;;;;;18.90;13.30;;;;;;;5.25;79.71;96462.93;108078;1279;22580;-73
2022/04/09 01:40:09;;;;;;;21.60;13.40;;;;;;;5.21;79.67;96465.46;108026;1277;22580;-73
2022/04/09 01:42:36;;;;;;;20.60;13.20;;;;;;;5.20;79.22;96458.63;108035;1277;22558;-73
2022/04/09 01:45:08;;;;;;;18.10;13.30;;;;;;;5.19;79.10;96467.55;108020;1278;25553;-73
2022/04/09 01:47:40;;;;;;;25.30;15.50;;;;;;;5.20;78.78;96472.84;108047;1278;22862;-73
2022/04/09 01:50:09;;;;;;;22.30;14.50;;;;;;;5.23;78.81;96474.77;108008;1278;22552;-72
2022/04/09 01:52:36;;;;;;;23.00;16.10;;;;;;;5.26;79.22;96469.77;108160;1277;22561;-73
2022/04/09 01:55:05;;;;;;;39.10;27.60;;;;;;;5.26;79.45;96455.05;107989;1278;22742;-74
2022/04/09 01:57:33;;;;;;;23.00;15.10;;;;;;;5.23;79.86;96408.15;107841;1278;261627;-73
2022/04/09 02:00:01;;;;;;;18.80;12.00;;;;;;;5.18;79.78;96368.06;108190;1278;22647;-73
2022/04/09 02:02:28;;;;;;;20.70;13.10;;;;;;;5.09;79.92;96386.90;108015;1278;22614;-73
2022/04/09 02:04:55;;;;;;;22.80;14.30;;;;;;;5.04;79.97;96398.65;108024;1278;25346;-73
2022/04/09 02:07:22;;;;;;;22.10;14.10;;;;;;;5.06;80.06;96393.36;108004;1277;22657;-73
2022/04/09 02:09:50;;;;;;;21.50;13.50;;;;;;;5.08;80.10;96386.11;108015;1277;22565;-73
2022/04/09 02:12:17;;;;;;;23.50;14.40;;;;;;;5.08;80.19;96372.29;108032;1277;26430;-73
2022/04/09 02:14:45;;;;;;;21.30;14.40;;;;;;;5.05;80.88;96372.00;108013;1278;22728;-73
2022/04/09 02:17:13;;;;;;;21.20;14.20;;;;;;;5.04;80.51;96367.80;108019;1279;22551;-73
2022/04/09 02:19:40;;;;;;;23.30;14.40;;;;;;;5.03;80.03;96343.70;108036;1278;22617;-73
2022/04/09 02:22:07;;;;;;;24.00;16.00;;;;;;;5.02;79.72;96340.52;108027;1277;22552;-73
2022/04/09 02:24:34;;;;;;;22.90;16.00;;;;;;;5.04;79.96;96360.35;108027;1277;22597;-73
2022/04/09 02:27:01;;;;;;;21.50;16.20;;;;;;;5.06;80.29;96370.54;108041;1279;24315;-73
2022/04/09 02:29:29;;;;;;;18.70;14.00;;;;;;;5.09;80.53;96365.52;108021;1278;22570;-73
2022/04/09 02:31:56;;;;;;;23.10;15.80;;;;;;;5.10;80.88;96362.00;107990;1277;22578;-73
2022/04/09 02:34:23;;;;;;;22.90;16.20;;;;;;;5.08;80.52;96365.23;108038;1278;22618;-73
2022/04/09 02:36:50;;;;;;;20.70;14.40;;;;;;;5.08;80.32;96357.11;108014;1278;23578;-73
2022/04/09 02:39:21;;;;;;;22.50;16.40;;;;;;;5.06;80.22;96352.27;108014;1278;22650;-73
2022/04/09 02:41:51;;;;;;;27.10;17.90;;;;;;;5.04;80.00;96349.13;108011;1278;22659;-73
2022/04/09 02:44:19;;;;;;;24.90;18.30;;;;;;;5.11;79.99;96335.14;108011;1278;22560;-73
2022/04/09 02:46:47;;;;;;;29.30;20.60;;;;;;;5.13;80.30;96332.69;108031;1278;22619;-73
2022/04/09 02:49:15;;;;;;;27.00;20.40;;;;;;;5.15;80.41;96342.59;108022;1278;22577;-73
2022/04/09 02:51:43;;;;;;;28.30;20.50;;;;;;;5.17;80.56;96338.66;108010;1278;22551;-73
2022/04/09 02:54:15;;;;;;;29.10;20.40;;;;;;;5.17;80.46;96328.80;108035;1278;25638;-73
2022/04/09 02:56:43;;;;;;;34.00;22.80;;;;;;;5.17;80.57;96322.42;108034;1278;24235;-73
2022/04/09 02:59:12;;;;;;;33.30;22.30;;;;;;;5.17;80.44;96316.70;108029;1278;23993;-73
2022/04/09 03:01:46;;;;;;;30.90;21.20;;;;;;;5.24;80.08;96309.58;108029;1279;25723;-73
2022/04/09 03:04:14;;;;;;;24.20;17.10;;;;;;;5.28;80.38;96302.14;108030;1279;22622;-73
2022/04/09 03:06:42;;;;;;;24.70;16.80;;;;;;;5.30;80.75;96299.13;108002;1279;22790;-73
2022/04/09 03:09:09;;;;;;;35.80;20.80;;;;;;;5.25;80.40;96307.45;108133;1277;22569;-73
2022/04/09 03:11:37;;;;;;;26.40;16.80;;;;;;;5.23;80.61;96306.38;108032;1278;22544;-73
2022/04/09 03:14:05;;;;;;;26.20;17.10;;;;;;;5.22;80.54;96308.68;108045;1278;25385;-73
2022/04/09 03:16:32;;;;;;;27.30;17.90;;;;;;;5.23;80.21;96321.91;108032;1278;25529;-73
2022/04/09 03:18:59;;;;;;;26.00;16.80;;;;;;;5.28;79.99;96333.94;108082;1278;22658;-73
2022/04/09 03:21:26;;;;;;;24.40;16.30;;;;;;;5.30;80.04;96346.73;108067;1279;24376;-73
2022/04/09 03:23:53;;;;;;;27.60;17.00;;;;;;;5.31;80.95;96358.19;108045;1277;23141;-72
2022/04/09 03:26:20;;;;;;;33.10;20.50;;;;;;;5.26;80.94;96372.75;108039;1278;22689;-73
2022/04/09 03:28:48;;;;;;;49.90;27.10;;;;;;;5.20;80.68;96381.30;108019;1277;22563;-73
2022/04/09 03:31:15;;;;;;;37.50;22.40;;;;;;;5.16;80.73;96377.37;108078;1278;24242;-73
2022/04/09 03:33:42;;;;;;;40.10;24.60;;;;;;;5.18;80.63;96381.67;108065;1277;22639;-73
2022/04/09 03:36:09;;;;;;;30.30;21.10;;;;;;;5.19;81.22;96381.24;108017;1278;22618;-73
2022/04/09 03:38:36;;;;;;;28.90;21.00;;;;;;;5.18;81.80;96390.85;108013;1277;22714;-73
2022/04/09 03:41:03;;;;;;;31.90;22.10;;;;;;;5.12;81.83;96386.66;108058;1278;23459;-73
2022/04/09 03:43:30;;;;;;;36.80;21.00;;;;;;;5.06;81.73;96389.20;108041;1278;22632;-73
2022/04/09 03:45:57;;;;;;;41.60;24.50;;;;;;;5.00;81.29;96410.18;108034;1278;24138;-73
2022/04/09 03:48:25;;;;;;;32.70;20.20;;;;;;;4.94;81.53;96412.92;108049;1278;22541;-73
2022/04/09 03:50:52;;;;;;;42.90;24.60;;;;;;;4.96;81.65;96410.36;107989;1278;22694;-73
2022/04/09 03:53:22;;;;;;;34.30;20.50;;;;;;;4.96;82.49;96415.14;108043;1277;22633;-73
2022/04/09 03:55:50;;;;;;;32.60;21.50;;;;;;;4.90;83.05;96419.79;108036;1277;22595;-73
2022/04/09 03:58:19;;;;;;;23.40;12.80;;;;;;;4.85;83.39;96421.33;108028;1279;25101;-73
2022/04/09 04:00:46;;;;;;;16.00;8.90;;;;;;;4.79;83.36;96433.52;108020;1279;24331;-73
2022/04/09 04:03:14;;;;;;;21.30;11.30;;;;;;;4.74;83.01;96432.58;108025;1278;22577;-73
2022/04/09 04:05:41;;;;;;;13.80;7.80;;;;;;;4.64;83.18;96437.84;108069;1278;22559;-72
2022/04/09 04:08:08;;;;;;;10.20;5.50;;;;;;;4.67;82.99;96437.02;108061;1277;22585;-73
2022/04/09 04:10:37;;;;;;;12.80;6.70;;;;;;;4.67;83.13;96439.78;108027;1278;22578;-73
2022/04/09 04:13:06;;;;;;;10.60;6.40;;;;;;;4.63;82.99;96440.33;108049;1277;22540;-73
2022/04/09 04:15:33;;;;;;;13.20;7.10;;;;;;;4.59;83.42;96436.15;108047;1278;22554;-73
2022/04/09 04:18:02;;;;;;;15.20;8.10;;;;;;;4.52;82.97;96427.18;108038;1278;24491;-73
2022/04/09 04:20:30;;;;;;;8.90;5.00;;;;;;;4.49;82.91;96422.02;108051;1277;22566;-73
2022/04/09 04:22:58;;;;;;;7.40;4.80;;;;;;;4.47;82.49;96426.48;108102;1277;22555;-73
2022/04/09 04:25:25;;;;;;;9.40;5.30;;;;;;;4.51;82.53;96418.28;108052;1278;22566;-73
2022/04/09 04:27:53;;;;;;;9.10;5.50;;;;;;;4.54;83.19;96413.20;108240;1277;22545;-73
2022/04/09 04:30:20;;;;;;;10.60;5.10;;;;;;;4.52;83.23;96416.11;108035;1277;22575;-72
2022/04/09 04:32:47;;;;;;;12.80;5.60;;;;;;;4.50;83.35;96415.74;108051;1278;22600;-72
2022/04/09 04:35:14;;;;;;;7.70;4.70;;;;;;;4.47;83.40;96413.09;108062;1277;22548;-73
2022/04/09 04:37:44;;;;;;;6.50;4.10;;;;;;;4.43;83.26;96411.84;108037;1278;22734;-72
2022/04/09 04:40:13;;;;;;;7.70;4.00;;;;;;;4.38;82.82;96414.24;108014;1277;24381;-72
2022/04/09 04:42:40;;;;;;;7.30;4.20;;;;;;;4.35;83.22;96420.55;108010;1278;24330;-72
2022/04/09 04:45:10;;;;;;;5.80;3.10;;;;;;;4.33;83.26;96419.95;108037;1277;25424;-72
2022/04/09 04:47:48;;;;;;;8.60;4.00;;;;;;;4.34;83.61;96422.19;108018;1277;22572;-72
2022/04/09 04:50:16;;;;;;;6.10;3.20;;;;;;;4.24;83.29;96433.94;108037;1278;25305;-72
2022/04/09 04:52:43;;;;;;;5.80;2.60;;;;;;;4.18;83.01;96448.17;108023;1278;22565;-72
2022/04/09 04:55:11;;;;;;;8.00;3.70;;;;;;;4.13;82.71;96462.66;108051;1277;24047;-72
2022/04/09 04:57:51;;;;;;;6.20;3.00;;;;;;;4.02;82.81;96474.66;108088;1278;26384;-73
2022/04/09 05:00:21;;;;;;;5.00;3.20;;;;;;;4.04;82.93;96486.76;108048;1277;25361;-72
2022/04/09 05:02:49;;;;;;;7.00;3.50;;;;;;;3.99;83.10;96507.26;108031;1278;22565;-72
2022/04/09 05:05:16;;;;;;;5.30;2.60;;;;;;;4.02;83.38;96524.25;108023;1277;22763;-72
2022/04/09 05:07:46;;;;;;;6.40;2.10;;;;;;;3.91;83.17;96534.01;108045;1278;22638;-75
2022/04/09 05:10:21;;;;;;;3.80;2.30;;;;;;;3.82;82.88;96548.97;108072;1278;22521;-75
2022/04/09 05:12:49;;;;;;;5.70;3.00;;;;;;;3.71;82.85;96566.93;108037;1277;22699;-75
2022/04/09 05:15:17;;;;;;;5.00;2.60;;;;;;;3.71;83.25;96579.03;108065;1277;22553;-75
2022/04/09 05:17:44;;;;;;;4.90;2.80;;;;;;;3.60;83.67;96596.63;107983;1278;23049;-75
2022/04/09 05:20:14;;;;;;;5.80;2.40;;;;;;;3.58;83.59;96615.23;108061;1277;22628;-75
2022/04/09 05:22:49;;;;;;;5.60;2.60;;;;;;;3.53;83.60;96630.33;108084;1277;22589;-75
2022/04/09 05:25:20;;;;;;;5.90;3.20;;;;;;;3.46;83.51;96646.81;108013;1277;22577;-75
2022/04/09 05:27:49;;;;;;;6.60;3.40;;;;;;;3.39;83.60;96656.59;108035;1278;22717;-75
2022/04/09 05:30:17;;;;;;;6.30;3.10;;;;;;;3.38;83.67;96664.05;108041;1278;23144;-75
2022/04/09 05:32:45;;;;;;;8.80;4.10;;;;;;;3.36;83.82;96675.20;108094;1277;22648;-74
2022/04/09 05:35:12;;;;;;;7.50;4.10;;;;;;;3.38;83.99;96683.17;108173;1278;25254;-75
2022/04/09 05:37:45;;;;;;;7.80;4.00;;;;;;;3.42;84.07;96691.50;107988;1278;22642;-75
2022/04/09 05:40:13;;;;;;;9.40;4.10;;;;;;;3.34;84.03;96703.51;108012;1277;23136;-73
2022/04/09 05:42:40;;;;;;;10.70;5.00;;;;;;;3.29;83.76;96716.77;108015;1277;22797;-73
2022/04/09 05:45:09;;;;;;;6.60;3.30;;;;;;;3.25;83.82;96720.67;108053;1277;24266;-73
2022/04/09 05:47:44;;;;;;;10.90;6.30;;;;;;;3.33;83.82;96731.30;108068;1278;22556;-73
2022/04/09 05:50:12;;;;;;;5.90;3.60;;;;;;;3.28;83.98;96738.36;108235;1277;22578;-72
2022/04/09 05:52:41;;;;;;;7.10;3.50;;;;;;;3.29;84.06;96743.94;108073;1278;22574;-72
2022/04/09 05:55:09;;;;;;;7.10;3.00;;;;;;;3.33;83.95;96749.38;108020;1278;23552;-72
2022/04/09 05:57:36;;;;;;;6.50;3.20;;;;;;;3.23;83.57;96759.88;108035;1277;22955;-72
2022/04/09 06:00:05;;;;;;;8.50;4.50;;;;;;;3.18;83.28;96767.94;108057;1278;22536;-72
2022/04/09 06:02:32;;;;;;;7.70;3.70;;;;;;;3.16;83.32;96767.04;108181;1278;22544;-73
2022/04/09 06:04:59;;;;;;;7.20;4.00;;;;;;;3.16;83.34;96760.68;107996;1277;22691;-73
2022/04/09 06:07:26;;;;;;;6.30;3.20;;;;;;;3.12;83.46;96770.21;108011;1277;22611;-73
2022/04/09 06:09:54;;;;;;;9.60;4.80;;;;;;;3.16;83.59;96771.19;108033;1278;22627;-73
2022/04/09 06:12:21;;;;;;;8.10;3.90;;;;;;;3.15;83.55;96768.64;108023;1278;22678;-73
2022/04/09 06:14:48;;;;;;;7.80;3.70;;;;;;;3.20;83.35;96777.07;108042;1278;23311;-73
2022/04/09 06:17:15;;;;;;;7.80;4.00;;;;;;;3.27;82.99;96787.79;108013;1277;22538;-74
2022/04/09 06:19:43;;;;;;;5.60;3.20;;;;;;;3.37;83.05;96803.33;108030;1278;22610;-73
2022/04/09 06:22:10;;;;;;;7.20;3.40;;;;;;;3.42;83.19;96814.02;108073;1277;22717;-74
2022/04/09 06:24:38;;;;;;;5.40;2.50;;;;;;;3.40;83.40;96823.45;108052;1277;22534;-74
2022/04/09 06:27:05;;;;;;;4.20;2.50;;;;;;;3.45;83.49;96834.85;108068;1277;22546;-74
2022/04/09 06:29:32;;;;;;;4.50;2.10;;;;;;;3.46;83.56;96848.20;107987;1278;22554;-74
2022/04/09 06:31:59;;;;;;;6.30;3.00;;;;;;;3.42;83.11;96860.80;108035;1278;22691;-74
2022/04/09 06:34:27;;;;;;;5.20;2.90;;;;;;;3.40;82.76;96874.70;108004;1278;22793;-74
2022/04/09 06:36:54;;;;;;;6.00;3.30;;;;;;;3.42;82.53;96898.33;108031;1277;22589;-74
2022/04/09 06:39:23;;;;;;;5.00;3.10;;;;;;;3.45;82.62;96915.70;108046;1277;24443;-74
2022/04/09 06:41:50;;;;;;;6.10;3.40;;;;;;;3.43;83.00;96932.49;108284;1277;22583;-74
2022/04/09 06:44:17;;;;;;;5.40;3.10;;;;;;;3.41;83.16;96947.27;108023;1277;25262;-74
2022/04/09 06:46:46;;;;;;;4.60;3.10;;;;;;;3.42;83.18;96951.70;108050;1277;22548;-73
2022/04/09 06:49:13;;;;;;;4.40;2.80;;;;;;;3.37;82.69;96962.11;108065;1277;22598;-73
2022/04/09 06:51:41;;;;;;;6.30;4.30;;;;;;;3.35;82.22;96973.97;108064;1277;22576;-73
2022/04/09 06:54:09;;;;;;;9.10;5.10;;;;;;;3.30;82.14;96981.88;108044;1277;22619;-73
2022/04/09 06:56:39;;;;;;;6.90;4.90;;;;;;;3.30;82.18;96987.01;108075;1277;25361;-73
2022/04/09 06:59:06;;;;;;;6.60;4.80;;;;;;;3.24;82.59;96993.59;107981;1278;22575;-72
2022/04/09 07:01:33;;;;;;;8.40;5.10;;;;;;;3.28;82.77;96987.48;108034;1277;22804;-72
2022/04/09 07:04:00;;;;;;;7.30;4.10;;;;;;;3.25;82.60;96986.84;108025;1278;24293;-73
2022/04/09 07:06:30;;;;;;;7.70;4.50;;;;;;;3.22;82.60;96990.07;108039;1278;23069;-73
2022/04/09 07:08:57;;;;;;;6.20;4.10;;;;;;;3.22;82.39;96998.02;108053;1277;22528;-72
2022/04/09 07:11:24;;;;;;;6.60;3.60;;;;;;;3.30;82.41;97001.77;108040;1277;22558;-74
2022/04/09 07:13:51;;;;;;;7.00;4.50;;;;;;;3.38;82.47;97008.70;108037;1277;24412;-76
2022/04/09 07:16:18;;;;;;;6.00;3.70;;;;;;;3.43;82.53;97015.98;108062;1278;22535;-75
2022/04/09 07:18:45;;;;;;;8.90;4.00;;;;;;;3.41;82.33;97030.41;108123;1277;22709;-75
2022/04/09 07:21:12;;;;;;;8.00;4.40;;;;;;;3.37;82.68;97040.78;108061;1277;22561;-75
2022/04/09 07:23:39;;;;;;;12.00;5.80;;;;;;;3.38;82.52;97045.52;108018;1277;22609;-75
2022/04/09 07:26:06;;;;;;;8.10;4.70;;;;;;;3.47;82.42;97053.62;108039;1277;22722;-81
2022/04/09 07:28:34;;;;;;;10.30;4.80;;;;;;;3.47;82.11;97058.59;108030;1277;22708;-75
2022/04/09 07:31:01;;;;;;;7.80;4.50;;;;;;;3.53;82.06;97063.36;108030;1277;22590;-75
2022/04/09 07:33:28;;;;;;;6.80;4.60;;;;;;;3.65;82.09;97072.80;107999;1277;22581;-75
2022/04/09 07:35:55;;;;;;;6.90;4.30;;;;;;;3.69;82.15;97085.10;108008;1278;22705;-73
2022/04/09 07:38:23;;;;;;;7.50;4.60;;;;;;;3.76;82.46;97094.48;108055;1277;25508;-74
2022/04/09 07:40:50;;;;;;;8.60;5.40;;;;;;;3.77;82.05;97099.73;108018;1277;22665;-73
2022/04/09 07:43:18;;;;;;;9.50;5.20;;;;;;;3.78;82.11;97110.35;108092;1277;22619;-74
2022/04/09 07:45:46;;;;;;;7.00;4.40;;;;;;;3.86;81.72;97118.66;108099;1277;22545;-74
2022/04/09 07:48:14;;;;;;;9.00;4.60;;;;;;;3.98;81.24;97116.66;108053;1277;22549;-74
2022/04/09 07:50:41;;;;;;;7.70;4.90;;;;;;;4.07;81.21;97122.47;108050;1277;22544;-74
2022/04/09 07:53:09;;;;;;;7.60;4.40;;;;;;;4.16;81.23;97149.66;108207;1278;22543;-74
2022/04/09 07:55:37;;;;;;;9.60;5.10;;;;;;;4.21;81.49;97178.13;108294;1277;22644;-74
2022/04/09 07:58:06;;;;;;;10.20;5.30;;;;;;;4.23;81.17;97189.19;108291;1277;22559;-74
2022/04/09 08:00:34;;;;;;;10.60;5.80;;;;;;;4.29;80.60;97198.33;108269;1277;22550;-74
2022/04/09 08:03:02;;;;;;;9.60;5.50;;;;;;;4.15;80.10;97191.44;108330;1277;22541;-74
2022/04/09 08:05:29;;;;;;;8.30;5.40;;;;;;;3.97;80.16;97188.23;108333;1277;22558;-74
2022/04/09 08:07:57;;;;;;;7.70;5.10;;;;;;;3.95;80.00;97207.28;108330;1277;22693;-74
2022/04/09 08:10:24;;;;;;;9.00;5.90;;;;;;;4.00;80.02;97214.02;108322;1277;22630;-74
2022/04/09 08:12:53;;;;;;;9.30;5.40;;;;;;;4.06;80.43;97219.17;108322;1277;22559;-74
2022/04/09 08:15:21;;;;;;;8.10;5.40;;;;;;;4.03;80.24;97219.55;108336;1277;25410;-74
2022/04/09 08:17:48;;;;;;;11.30;6.80;;;;;;;3.99;80.57;97226.34;108336;1277;22548;-77
2022/04/09 08:20:19;;;;;;;16.40;9.10;;;;;;;4.01;80.63;97235.57;108302;1278;22563;-74
2022/04/09 08:22:47;;;;;;;13.80;7.60;;;;;;;4.04;80.56;97235.35;108324;1277;25633;-75
2022/04/09 08:25:14;;;;;;;15.40;7.30;;;;;;;4.11;80.28;97238.90;108346;1277;24416;-74
2022/04/09 08:27:43;;;;;;;11.50;7.80;;;;;;;4.12;80.16;97245.84;108331;1277;22557;-74
2022/04/09 08:30:11;;;;;;;13.10;7.60;;;;;;;4.23;80.19;97250.52;108323;1277;24441;-73
2022/04/09 08:32:38;;;;;;;12.60;7.70;;;;;;;4.39;80.85;97253.38;108346;1277;22549;-74
2022/04/09 08:35:05;;;;;;;12.10;7.60;;;;;;;4.50;81.13;97251.77;108334;1277;22549;-74
2022/04/09 08:37:32;;;;;;;9.90;6.20;;;;;;;4.57;80.93;97262.92;108356;1277;22562;-74
2022/04/09 08:39:59;;;;;;;10.10;6.70;;;;;;;4.59;80.30;97275.86;108279;1277;22711;-74
2022/04/09 08:42:28;;;;;;;9.60;7.30;;;;;;;4.62;80.47;97277.44;108325;1277;25363;-74
2022/04/09 08:44:55;;;;;;;9.60;6.50;;;;;;;4.70;79.92;97281.23;108350;1277;25242;-75
2022/04/09 08:47:27;;;;;;;11.70;7.70;;;;;;;4.77;79.87;97282.46;108096;1277;22531;-75
2022/04/09 08:49:56;;;;;;;11.50;6.50;;;;;;;4.81;80.23;97296.37;108078;1277;22718;-74
2022/04/09 08:52:23;;;;;;;11.20;7.60;;;;;;;4.80;80.46;97306.61;108120;1277;22588;-75
2022/04/09 08:54:50;;;;;;;11.40;8.00;;;;;;;4.82;80.18;97306.17;108048;1277;22546;-75
2022/04/09 08:57:17;;;;;;;11.70;8.20;;;;;;;4.81;79.97;97311.90;108109;1278;25297;-73
2022/04/09 08:59:44;;;;;;;14.00;8.80;;;;;;;4.81;79.55;97308.66;108121;1277;22554;-74
2022/04/09 09:02:11;;;;;;;12.30;9.60;;;;;;;4.83;79.34;97307.13;108098;1277;22537;-74
2022/04/09 09:04:39;;;;;;;19.20;12.60;;;;;;;4.84;79.36;97311.69;108102;1277;22575;-74
2022/04/09 09:07:23;;;;;;;19.30;12.70;;;;;;;4.92;79.32;97309.88;108067;1277;24013;-74
2022/04/09 09:09:52;;;;;;;20.10;11.90;;;;;;;5.09;79.75;97311.34;108048;1277;25377;-74
2022/04/09 09:12:29;;;;;;;19.30;12.60;;;;;;;5.23;79.86;97318.88;108117;1277;25383;-74
2022/04/09 09:14:58;;;;;;;23.40;15.50;;;;;;;5.35;80.01;97327.30;108356;1277;22564;-75
2022/04/09 09:17:30;;;;;;;22.00;14.70;;;;;;;5.39;79.56;97326.12;108179;1277;22611;-74
2022/04/09 09:19:58;;;;;;;23.60;14.50;;;;;;;5.41;79.30;97333.80;108087;1277;23274;-74
2022/04/09 09:22:38;;;;;;;23.90;16.00;;;;;;;5.41;79.06;97351.75;108174;1277;22719;-74
2022/04/09 09:25:11;;;;;;;21.70;14.90;;;;;;;5.44;79.09;97364.84;108073;1277;22621;-75
2022/04/09 09:27:41;;;;;;;17.30;13.00;;;;;;;5.50;79.00;97371.66;108100;1277;23180;-74
2022/04/09 09:30:11;;;;;;;20.80;14.80;;;;;;;5.53;79.18;97384.10;108041;1277;23468;-73
2022/04/09 09:32:41;;;;;;;24.20;14.60;;;;;;;5.63;79.27;97392.98;108078;1277;22555;-74
2022/04/09 09:35:17;;;;;;;24.60;15.80;;;;;;;5.72;78.83;97398.93;108057;1277;22569;-75
2022/04/09 09:37:44;;;;;;;20.50;13.60;;;;;;;5.84;78.39;97404.91;108086;1277;22744;-75
2022/04/09 09:40:31;;;;;;;20.20;12.50;;;;;;;5.77;78.41;97413.99;108064;1277;25277;-74
2022/04/09 09:43:20;;;;;;;17.10;12.60;;;;;;;5.78;77.93;97417.59;108056;1277;24585;-74
2022/04/09 09:45:48;;;;;;;21.60;14.70;;;;;;;5.76;77.92;97419.40;108069;1277;22814;-74
2022/04/09 09:48:19;;;;;;;21.90;15.80;;;;;;;5.81;78.03;97422.51;108075;1277;22643;-74
2022/04/09 09:50:47;;;;;;;17.70;12.90;;;;;;;5.82;78.44;97422.98;108092;1277;23372;-74
2022/04/09 09:53:14;;;;;;;19.90;14.00;;;;;;;5.81;78.67;97423.75;108107;1277;22629;-73
2022/04/09 09:55:43;;;;;;;21.40;15.70;;;;;;;5.76;78.36;97422.85;108079;1277;22624;-75
2022/04/09 09:58:15;;;;;;;20.90;14.30;;;;;;;5.71;78.20;97429.56;108230;1277;24091;-74
2022/04/09 10:00:46;;;;;;;22.10;14.50;;;;;;;5.72;77.49;97435.23;108094;1277;22559;-74
2022/04/09 10:03:16;;;;;;;24.60;16.10;;;;;;;5.72;77.68;97434.20;108072;1277;22883;-75
2022/04/09 10:05:43;;;;;;;22.50;14.60;;;;;;;5.83;77.13;97428.80;108140;1277;22763;-73
2022/04/09 10:08:10;;;;;;;21.10;14.20;;;;;;;5.99;77.08;97440.55;108072;1277;23025;-75
2022/04/09 10:10:41;;;;;;;17.40;10.30;;;;;;;6.11;77.31;97449.11;108043;1277;22562;-74
2022/04/09 10:13:08;;;;;;;15.50;11.30;;;;;;;6.24;77.37;97455.33;108100;1277;22604;-77
2022/04/09 10:15:37;;;;;;;18.10;12.00;;;;;;;6.49;76.84;97455.71;108111;1277;22542;-74
2022/04/09 10:18:08;;;;;;;17.70;12.50;;;;;;;6.71;76.43;97463.93;108090;1277;25512;-73
2022/04/09 10:20:35;;;;;;;17.70;12.40;;;;;;;6.81;76.22;97463.94;108037;1277;22782;-73
2022/04/09 10:23:06;;;;;;;14.30;9.00;;;;;;;6.98;75.57;97466.36;108079;1278;23123;-72
2022/04/09 10:25:34;;;;;;;12.70;8.70;;;;;;;6.96;75.09;97467.74;108127;1277;22596;-72
2022/04/09 10:28:03;;;;;;;17.30;9.20;;;;;;;6.87;74.40;97476.83;108068;1277;22591;-72
2022/04/09 10:30:40;;;;;;;15.60;10.30;;;;;;;6.75;74.26;97474.38;108110;1277;22617;-73
2022/04/09 10:33:22;;;;;;;11.80;7.80;;;;;;;6.63;73.30;97476.20;108231;1277;22668;-76
2022/04/09 10:35:50;;;;;;;13.00;8.60;;;;;;;6.46;73.90;97486.04;108077;1277;22620;-72
2022/04/09 10:38:22;;;;;;;14.70;10.40;;;;;;;6.39;74.16;97493.76;108094;1277;22590;-76
2022/04/09 10:40:49;;;;;;;16.00;10.40;;;;;;;6.57;73.57;97500.50;108107;1277;22582;-76
2022/04/09 10:43:25;;;;;;;12.50;8.10;;;;;;;6.83;73.13;97502.39;108094;1277;22835;-73
2022/04/09 10:46:09;;;;;;;14.10;8.70;;;;;;;7.07;72.67;97503.80;108002;1277;22548;-73
2022/04/09 10:48:44;;;;;;;14.90;9.00;;;;;;;7.34;72.25;97503.16;107999;1278;24416;-74
2022/04/09 10:51:12;;;;;;;19.10;11.30;;;;;;;7.62;72.31;97503.25;108175;1279;22555;-76
2022/04/09 10:53:41;;;;;;;13.20;8.30;;;;;;;7.94;71.59;97497.68;108257;1278;22525;-77
2022/04/09 10:56:21;;;;;;;11.80;7.00;;;;;;;8.15;70.85;97493.70;108254;1277;25397;-75
2022/04/09 10:59:06;;;;;;;11.20;7.20;;;;;;;8.32;71.07;97489.14;108297;1277;22565;-75
2022/04/09 11:01:46;;;;;;;10.90;6.90;;;;;;;8.44;69.81;97484.60;108347;1277;22548;-75
2022/04/09 11:04:32;;;;;;;13.40;7.10;;;;;;;8.57;69.88;97489.86;108332;1277;22542;-77
2022/04/09 11:07:05;;;;;;;12.20;7.10;;;;;;;8.68;69.06;97479.21;108287;1277;23930;-74
2022/04/09 11:09:54;;;;;;;16.00;8.40;;;;;;;8.71;68.63;97478.45;108293;1277;22575;-77
2022/04/09 11:12:41;;;;;;;12.70;6.40;;;;;;;8.77;68.15;97471.23;108345;1277;22649;-76
2022/04/09 11:15:10;;;;;;;14.50;8.70;;;;;;;8.79;67.63;97476.27;108303;1277;22567;-77
2022/04/09 11:17:39;;;;;;;14.00;8.50;;;;;;;8.68;67.54;97492.39;108317;1277;25246;-76
2022/04/09 11:20:10;;;;;;;10.10;6.50;;;;;;;8.52;66.71;97504.71;108324;1277;22691;-77
2022/04/09 11:22:40;;;;;;;11.70;6.90;;;;;;;8.25;66.83;97522.83;108323;1277;22557;-75
2022/04/09 11:25:30;;;;;;;14.20;7.90;;;;;;;7.98;67.14;97530.83;108345;1277;22547;-75
2022/04/09 11:28:13;;;;;;;12.60;7.80;;;;;;;7.65;66.89;97531.80;108340;1277;22581;-76
2022/04/09 11:31:04;;;;;;;16.90;10.00;;;;;;;7.36;67.44;97538.04;108317;1277;25413;-76
2022/04/09 11:33:31;;;;;;;13.50;7.90;;;;;;;7.14;67.94;97537.97;108277;1279;22564;-76
2022/04/09 11:36:02;;;;;;;15.20;8.30;;;;;;;7.04;68.59;97528.27;108294;1279;26804;-76